createdAt,value
2019-05-02T00:02:11.435Z,7.90
2019-05-02T00:04:38.299Z,8.40
2019-05-02T00:07:07.280Z,7.80
2019-05-02T00:09:35.647Z,7.70
2019-05-02T00:12:06.796Z,8.23
2019-05-02T00:14:34.981Z,7.65
2019-05-02T00:17:02.193Z,7.40
2019-05-02T00:19:29.515Z,7.70
2019-05-02T00:21:56.809Z,8.23
2019-05-02T00:24:23.793Z,8.20
2019-05-02T00:26:50.757Z,7.35
2019-05-02T00:29:19.026Z,7.70
2019-05-02T00:31:48.810Z,8.20
2019-05-02T00:34:15.789Z,8.18
2019-05-02T00:36:43.064Z,8.38
2019-05-02T00:39:13.724Z,7.67
2019-05-02T00:41:40.442Z,8.28
2019-05-02T00:44:10.957Z,8.30
2019-05-02T00:46:37.176Z,7.47
2019-05-02T00:49:04.448Z,8.03
2019-05-02T00:51:31.598Z,8.33
2019-05-02T00:53:58.762Z,8.30
2019-05-02T00:56:25.541Z,8.05
2019-05-02T00:58:52.689Z,7.83
2019-05-02T01:01:29.628Z,7.80
2019-05-02T01:03:59.270Z,7.78
2019-05-02T01:06:26.486Z,8.10
2019-05-02T01:08:53.284Z,8.48
2019-05-02T01:11:20.250Z,7.97
2019-05-02T01:13:50.276Z,8.23
2019-05-02T01:16:19.120Z,7.80
2019-05-02T01:18:44.669Z,8.48
2019-05-02T01:21:11.467Z,8.10
2019-05-02T01:23:38.352Z,7.60
2019-05-02T01:26:07.116Z,8.48
2019-05-02T01:28:55.612Z,8.25
2019-05-02T01:31:36.591Z,7.97
2019-05-02T01:34:17.958Z,8.03
2019-05-02T01:36:49.673Z,8.30
2019-05-02T01:39:17.033Z,7.70
2019-05-02T01:41:43.905Z,7.97
2019-05-02T01:44:10.780Z,7.95
2019-05-02T01:46:37.628Z,7.53
2019-05-02T01:49:04.781Z,7.78
2019-05-02T01:51:31.513Z,7.60
2019-05-02T01:53:59.148Z,8.10
2019-05-02T01:56:28.443Z,7.72
2019-05-02T01:58:57.763Z,7.87
2019-05-02T02:01:23.863Z,8.25
2019-05-02T02:03:50.744Z,8.30
2019-05-02T02:06:17.622Z,7.72
2019-05-02T02:08:45.030Z,7.83
2019-05-02T02:11:11.765Z,7.17
2019-05-02T02:13:38.849Z,8.00
2019-05-02T02:16:06.168Z,8.03
2019-05-02T02:18:35.099Z,8.00
2019-05-02T02:21:14.972Z,8.18
2019-05-02T02:23:49.739Z,7.62
2019-05-02T02:26:18.756Z,7.95
2019-05-02T02:28:45.638Z,7.83
2019-05-02T02:31:12.628Z,8.05
2019-05-02T02:33:40.806Z,7.92
2019-05-02T02:36:09.040Z,8.15
2019-05-02T02:38:36.458Z,8.35
2019-05-02T02:41:06.392Z,7.30
2019-05-02T02:43:34.740Z,8.78
2019-05-02T02:46:01.705Z,7.70
2019-05-02T02:48:33.614Z,7.78
2019-05-02T02:50:58.976Z,8.08
2019-05-02T02:53:31.424Z,7.62
2019-05-02T02:56:05.987Z,8.58
2019-05-02T02:58:44.558Z,7.85
2019-05-02T03:01:02.133Z,8.05
2019-05-02T03:03:31.381Z,8.18
2019-05-02T03:06:05.242Z,8.53
2019-05-02T03:08:27.337Z,8.48
2019-05-02T03:10:54.408Z,8.40
2019-05-02T03:13:24.363Z,8.25
2019-05-02T03:16:00.463Z,8.45
2019-05-02T03:18:26.938Z,8.00
2019-05-02T03:20:52.658Z,8.68
2019-05-02T03:23:22.163Z,9.03
2019-05-02T03:25:51.171Z,8.15
2019-05-02T03:28:20.355Z,8.60
2019-05-02T03:30:46.404Z,8.50
2019-05-02T03:33:13.158Z,8.53
2019-05-02T03:35:44.130Z,8.33
2019-05-02T03:38:09.450Z,8.40
2019-05-02T03:40:38.871Z,8.78
2019-05-02T03:43:06.440Z,8.40
2019-05-02T03:45:39.804Z,8.63
2019-05-02T03:48:02.197Z,8.63
2019-05-02T03:50:32.746Z,8.58
2019-05-02T03:52:59.233Z,9.03
2019-05-02T03:55:30.896Z,8.00
2019-05-02T03:57:55.934Z,8.63
2019-05-02T04:00:24.416Z,8.95
2019-05-02T04:02:59.588Z,8.70
2019-05-02T04:05:20.385Z,8.60
2019-05-02T04:07:47.560Z,9.30
2019-05-02T04:10:46.273Z,8.95
2019-05-02T04:13:13.817Z,8.80
2019-05-02T04:15:42.820Z,8.83
2019-05-02T04:18:15.569Z,8.70
2019-05-02T04:20:43.537Z,9.08
2019-05-02T04:23:11.530Z,8.60
2019-05-02T04:25:39.034Z,9.13
2019-05-02T04:28:11.488Z,8.55
2019-05-02T04:30:34.469Z,8.90
2019-05-02T04:33:01.355Z,8.73
2019-05-02T04:35:28.716Z,8.23
2019-05-02T04:37:59.113Z,8.78
2019-05-02T04:40:28.189Z,8.30
2019-05-02T04:43:05.498Z,8.70
2019-05-02T04:45:29.384Z,8.88
2019-05-02T04:47:58.999Z,9.20
2019-05-02T04:50:25.315Z,8.83
2019-05-02T04:52:53.728Z,8.80
2019-05-02T04:55:26.214Z,8.80
2019-05-02T04:57:50.594Z,8.38
2019-05-02T05:00:20.957Z,8.53
2019-05-02T05:02:48.391Z,8.58
2019-05-02T05:05:25.019Z,8.78
2019-05-02T05:07:46.515Z,9.08
2019-05-02T05:10:14.476Z,9.23
2019-05-02T05:12:42.010Z,8.35
2019-05-02T05:15:15.144Z,9.05
2019-05-02T05:17:38.070Z,8.83
2019-05-02T05:20:12.210Z,8.38
2019-05-02T05:22:36.598Z,8.43
2019-05-02T05:25:21.360Z,8.65
2019-05-02T05:27:52.556Z,9.48
2019-05-02T05:30:18.754Z,8.85
2019-05-02T05:32:47.785Z,8.73
2019-05-02T05:35:15.154Z,8.70
2019-05-02T05:37:43.268Z,9.10
2019-05-02T05:40:11.238Z,8.45
2019-05-02T05:42:38.122Z,9.18
2019-05-02T05:45:09.693Z,8.63
2019-05-02T05:47:37.722Z,8.78
2019-05-02T05:50:05.676Z,8.68
2019-05-02T05:52:33.110Z,8.88
2019-05-02T05:55:01.107Z,8.45
2019-05-02T05:57:28.048Z,8.80
2019-05-02T05:59:58.425Z,8.68
2019-05-02T06:02:25.448Z,8.65
2019-05-02T06:04:55.343Z,8.75
2019-05-02T06:07:21.426Z,9.53
2019-05-02T06:09:48.155Z,9.20
2019-05-02T06:12:15.040Z,8.93
2019-05-02T06:14:41.890Z,9.38
2019-05-02T06:17:09.428Z,9.18
2019-05-02T06:19:37.151Z,9.20
2019-05-02T06:22:04.668Z,9.23
2019-05-02T06:24:33.834Z,9.20
2019-05-02T06:27:00.431Z,9.05
2019-05-02T06:29:27.321Z,9.30
2019-05-02T06:31:59.457Z,9.15
2019-05-02T06:34:26.229Z,9.27
2019-05-02T06:36:53.097Z,9.33
2019-05-02T06:39:19.879Z,9.45
2019-05-02T06:41:46.750Z,9.95
2019-05-02T06:44:18.475Z,9.30
2019-05-02T06:46:42.808Z,9.55
2019-05-02T06:49:09.694Z,9.45
2019-05-02T06:51:38.231Z,9.15
2019-05-02T06:54:05.545Z,9.08
2019-05-02T06:56:32.661Z,9.28
2019-05-02T06:59:01.755Z,9.13
2019-05-02T07:01:28.614Z,8.63
2019-05-02T07:03:55.595Z,9.03
2019-05-02T07:06:22.912Z,9.20
2019-05-02T07:08:50.184Z,9.05
2019-05-02T07:11:18.123Z,9.20
2019-05-02T07:13:44.909Z,9.13
2019-05-02T07:16:30.361Z,8.50
2019-05-02T07:18:49.403Z,9.03
2019-05-02T07:21:17.317Z,8.58
2019-05-02T07:23:48.627Z,8.93
2019-05-02T07:26:15.414Z,10.00
2019-05-02T07:28:45.758Z,9.10
2019-05-02T07:31:13.857Z,9.15
2019-05-02T07:33:40.870Z,9.05
2019-05-02T07:36:07.823Z,9.10
2019-05-02T07:38:34.726Z,8.78
2019-05-02T07:41:01.587Z,9.08
2019-05-02T07:43:28.560Z,9.50
2019-05-02T07:45:55.803Z,8.78
2019-05-02T07:48:22.569Z,9.50
2019-05-02T07:50:49.893Z,9.20
2019-05-02T07:53:17.227Z,8.58
2019-05-02T07:55:44.217Z,9.00
2019-05-02T07:58:11.027Z,8.80
2019-05-02T08:00:38.502Z,9.23
2019-05-02T08:03:05.589Z,9.08
2019-05-02T08:05:32.785Z,9.48
2019-05-02T08:07:59.919Z,8.85
2019-05-02T08:10:27.180Z,9.43
2019-05-02T08:12:54.560Z,8.88
2019-05-02T08:15:24.301Z,8.18
2019-05-02T08:17:53.807Z,7.97
2019-05-02T08:20:19.810Z,8.83
2019-05-02T08:22:48.924Z,8.85
2019-05-02T08:25:16.922Z,7.58
2019-05-02T08:27:51.771Z,8.00
2019-05-02T08:30:21.232Z,8.45
2019-05-02T08:32:48.401Z,8.78
2019-05-02T08:35:15.270Z,8.58
2019-05-02T08:37:43.106Z,8.70
2019-05-02T08:40:12.016Z,8.50
2019-05-02T08:42:39.068Z,8.73
2019-05-02T08:45:06.972Z,8.48
2019-05-02T08:47:33.899Z,8.55
2019-05-02T08:50:00.983Z,12.47
2019-05-02T08:52:27.883Z,8.50
2019-05-02T08:54:54.773Z,8.35
2019-05-02T08:57:23.855Z,8.58
2019-05-02T08:59:55.501Z,10.85
2019-05-02T09:02:21.202Z,11.80
2019-05-02T09:04:58.175Z,12.15
2019-05-02T09:07:18.288Z,11.95
2019-05-02T09:09:45.217Z,11.10
2019-05-02T09:12:15.080Z,12.78
2019-05-02T09:14:42.602Z,13.13
2019-05-02T09:17:15.847Z,13.00
2019-05-02T09:19:38.955Z,13.08
2019-05-02T09:22:07.516Z,12.00
2019-05-02T09:24:34.533Z,12.45
2019-05-02T09:27:02.479Z,11.22
2019-05-02T09:29:29.541Z,12.23
2019-05-02T09:31:56.445Z,11.83
2019-05-02T09:34:26.694Z,12.95
2019-05-02T09:36:53.040Z,12.37
2019-05-02T09:39:20.023Z,13.60
2019-05-02T09:41:46.840Z,13.65
2019-05-02T09:44:18.623Z,12.82
2019-05-02T09:46:47.348Z,14.47
2019-05-02T09:49:16.273Z,15.13
2019-05-02T09:51:45.596Z,13.32
2019-05-02T09:54:12.087Z,14.53
2019-05-02T09:56:39.043Z,14.03
2019-05-02T09:59:23.262Z,15.03
2019-05-02T10:01:36.926Z,13.00
2019-05-02T10:04:04.285Z,13.80
2019-05-02T10:06:33.703Z,12.15
2019-05-02T10:09:02.607Z,14.60
2019-05-02T10:11:29.708Z,12.20
2019-05-02T10:13:56.628Z,13.70
2019-05-02T10:16:27.343Z,13.18
2019-05-02T10:18:53.373Z,13.95
2019-05-02T10:21:22.656Z,12.82
2019-05-02T10:23:51.693Z,11.97
2019-05-02T10:26:20.269Z,13.10
2019-05-02T10:28:51.197Z,13.68
2019-05-02T10:31:19.366Z,12.55
2019-05-02T10:33:46.607Z,12.58
2019-05-02T10:36:19.688Z,12.47
2019-05-02T10:38:42.791Z,12.93
2019-05-02T10:41:11.877Z,13.25
2019-05-02T10:43:38.802Z,12.45
2019-05-02T10:46:07.478Z,13.55
2019-05-02T10:48:36.308Z,11.95
2019-05-02T10:51:25.608Z,12.23
2019-05-02T10:53:52.647Z,12.53
2019-05-02T10:56:19.787Z,12.03
2019-05-02T10:58:46.619Z,12.82
2019-05-02T11:01:16.110Z,10.40
2019-05-02T11:03:54.074Z,11.57
2019-05-02T11:06:22.251Z,12.30
2019-05-02T11:08:52.379Z,10.05
2019-05-02T11:11:21.740Z,11.83
2019-05-02T11:14:01.991Z,11.30
2019-05-02T11:16:34.149Z,11.65
2019-05-02T11:19:09.968Z,10.82
2019-05-02T11:21:37.154Z,10.35
2019-05-02T11:24:04.202Z,10.80
2019-05-02T11:26:32.418Z,10.10
2019-05-02T11:28:59.870Z,9.98
2019-05-02T11:31:26.822Z,11.18
2019-05-02T11:33:54.034Z,9.95
2019-05-02T11:36:22.323Z,9.68
2019-05-02T11:39:00.283Z,10.35
2019-05-02T11:41:19.780Z,9.70
2019-05-02T11:43:46.568Z,10.30
2019-05-02T11:46:13.714Z,10.53
2019-05-02T11:48:54.697Z,9.20
2019-05-02T11:51:14.842Z,10.48
2019-05-02T11:53:38.311Z,10.35
2019-05-02T11:56:07.451Z,11.25
2019-05-02T11:58:34.382Z,9.73
2019-05-02T12:01:05.055Z,10.53
2019-05-02T12:03:35.577Z,9.25
2019-05-02T12:05:59.234Z,14.85
2019-05-02T12:08:26.147Z,14.70
2019-05-02T12:10:53.027Z,11.90
2019-05-02T12:13:20.312Z,11.25
2019-05-02T12:15:47.387Z,11.18
2019-05-02T12:18:14.435Z,12.68
2019-05-02T12:20:42.510Z,11.10
2019-05-02T12:23:09.842Z,11.70
2019-05-02T12:25:36.747Z,11.60
2019-05-02T12:28:05.309Z,10.70
2019-05-02T12:30:34.130Z,11.35
2019-05-02T12:33:02.530Z,11.03
2019-05-02T12:35:32.106Z,10.95
2019-05-02T12:37:59.466Z,12.23
2019-05-02T12:40:26.717Z,11.35
2019-05-02T12:42:53.477Z,12.40
2019-05-02T12:45:21.923Z,10.38
2019-05-02T12:47:49.507Z,10.82
2019-05-02T12:50:16.555Z,9.20
2019-05-02T12:52:43.452Z,10.18
2019-05-02T12:55:12.789Z,11.20
2019-05-02T12:57:39.865Z,10.80
2019-05-02T13:00:08.060Z,11.08
2019-05-02T13:02:42.882Z,10.30
2019-05-02T13:05:10.312Z,9.50
2019-05-02T13:07:37.234Z,10.18
2019-05-02T13:10:06.209Z,9.75
2019-05-02T13:12:35.202Z,11.60
2019-05-02T13:15:04.899Z,10.32
2019-05-02T13:17:35.721Z,10.20
2019-05-02T13:20:03.816Z,12.23
2019-05-02T13:22:37.878Z,12.25
2019-05-02T13:25:10.317Z,11.05
2019-05-02T13:27:44.409Z,13.18
2019-05-02T13:30:12.399Z,14.45
2019-05-02T13:32:42.639Z,12.78
2019-05-02T13:35:12.861Z,14.18
2019-05-02T13:37:42.310Z,12.78
2019-05-02T13:40:12.204Z,13.15
2019-05-02T13:42:39.068Z,14.07
2019-05-02T13:45:08.583Z,12.78
2019-05-02T13:47:35.432Z,12.93
2019-05-02T13:50:04.894Z,13.00
2019-05-02T13:52:33.196Z,13.62
2019-05-02T13:55:01.807Z,13.93
2019-05-02T13:57:28.779Z,12.60
2019-05-02T13:59:55.762Z,14.43
2019-05-02T14:02:42.636Z,14.33
2019-05-02T14:05:13.827Z,13.03
2019-05-02T14:07:43.005Z,13.55
2019-05-02T14:10:25.287Z,13.58
2019-05-02T14:12:53.962Z,13.23
2019-05-02T14:15:22.484Z,13.15
2019-05-02T14:17:49.667Z,13.00
2019-05-02T14:20:18.499Z,11.85
2019-05-02T14:22:45.834Z,21.87
2019-05-02T14:25:13.095Z,35.33
2019-05-02T14:27:42.029Z,12.85
2019-05-02T14:30:09.634Z,12.93
2019-05-02T14:32:36.721Z,13.20
2019-05-02T14:35:07.855Z,13.10
2019-05-02T14:37:34.919Z,11.63
2019-05-02T14:40:08.418Z,12.75
2019-05-02T14:42:35.273Z,12.70
2019-05-02T14:45:13.311Z,13.30
2019-05-02T14:47:33.864Z,12.93
2019-05-02T14:50:02.208Z,12.28
2019-05-02T14:52:29.945Z,10.08
2019-05-02T14:54:56.717Z,8.18
2019-05-02T14:57:27.013Z,6.87
2019-05-02T14:59:59.062Z,5.67
2019-05-02T15:02:39.324Z,5.05
2019-05-02T15:05:05.684Z,6.25
2019-05-02T15:07:33.022Z,5.47
2019-05-02T15:10:05.046Z,4.72
2019-05-02T15:12:28.855Z,4.53
2019-05-02T15:14:58.657Z,4.78
2019-05-02T15:17:28.111Z,4.05
2019-05-02T15:19:53.244Z,4.20
2019-05-02T15:22:20.024Z,5.35
2019-05-02T15:24:46.767Z,6.42
2019-05-02T15:27:17.728Z,6.97
2019-05-02T15:29:42.619Z,6.87
2019-05-02T15:32:25.451Z,6.28
2019-05-02T15:35:02.496Z,5.35
2019-05-02T15:37:29.498Z,5.25
2019-05-02T15:42:25.882Z,6.08
2019-05-02T15:44:56.950Z,5.83
2019-05-02T15:47:22.509Z,5.87
2019-05-02T15:49:50.309Z,5.78
2019-05-02T15:52:24.268Z,6.22
2019-05-02T15:54:55.515Z,6.55
2019-05-02T15:57:22.077Z,6.28
2019-05-02T15:59:48.381Z,6.00
2019-05-02T16:02:21.897Z,6.47
2019-05-02T16:04:46.605Z,5.80
2019-05-02T16:07:14.030Z,5.15
2019-05-02T16:09:41.662Z,6.10
2019-05-02T16:12:08.790Z,5.83
2019-05-02T16:14:36.246Z,6.00
2019-05-02T16:17:03.912Z,6.10
2019-05-02T16:19:33.073Z,6.87
2019-05-02T16:22:06.676Z,6.35
2019-05-02T16:24:32.138Z,6.78
2019-05-02T16:26:58.999Z,7.62
2019-05-02T16:29:28.424Z,6.78
2019-05-02T16:31:59.819Z,6.60
2019-05-02T16:34:27.466Z,6.90
2019-05-02T16:36:57.592Z,7.62
2019-05-02T16:39:24.353Z,7.80
2019-05-02T16:41:52.953Z,8.13
2019-05-02T16:44:19.919Z,7.58
2019-05-02T16:46:47.119Z,7.90
2019-05-02T16:49:18.485Z,8.13
2019-05-02T16:51:43.292Z,7.70
2019-05-02T16:54:10.186Z,7.97
2019-05-02T16:56:42.363Z,7.95
2019-05-02T16:59:05.972Z,8.08
2019-05-02T17:01:32.794Z,8.30
2019-05-02T17:04:05.183Z,9.50
2019-05-02T17:06:29.817Z,8.58
2019-05-02T17:09:07.623Z,8.93
2019-05-02T17:11:36.421Z,8.28
2019-05-02T17:14:07.000Z,8.15
2019-05-02T17:16:32.420Z,9.00
2019-05-02T17:18:59.204Z,8.98
2019-05-02T17:21:26.764Z,9.30
2019-05-02T17:23:55.190Z,8.93
2019-05-02T17:26:22.795Z,8.40
2019-05-02T17:28:51.633Z,9.15
2019-05-02T17:31:20.645Z,9.90
2019-05-02T17:33:50.930Z,9.18
2019-05-02T17:36:21.522Z,9.10
2019-05-02T17:38:46.284Z,10.05
2019-05-02T17:41:13.349Z,9.55
2019-05-02T17:43:42.138Z,9.85
2019-05-02T17:46:12.672Z,10.08
2019-05-02T17:48:39.273Z,8.83
2019-05-02T17:51:08.455Z,9.00
2019-05-02T17:53:41.626Z,9.20
2019-05-02T17:56:04.427Z,9.68
2019-05-02T17:58:31.881Z,9.55
2019-05-02T18:01:02.580Z,9.80
2019-05-02T18:03:31.102Z,9.48
2019-05-02T18:05:58.674Z,9.50
2019-05-02T18:08:27.134Z,9.38
2019-05-02T18:10:58.094Z,9.38
2019-05-02T18:13:23.807Z,9.40
2019-05-02T18:15:53.570Z,10.93
2019-05-02T18:18:22.141Z,9.58
2019-05-02T18:20:49.128Z,9.90
2019-05-02T18:23:18.643Z,10.00
2019-05-02T18:25:45.263Z,11.83
2019-05-02T18:28:14.041Z,11.85
2019-05-02T18:30:41.741Z,11.95
2019-05-02T18:33:09.035Z,13.53
2019-05-02T18:35:37.496Z,12.40
2019-05-02T18:38:05.373Z,13.53
2019-05-02T18:40:32.436Z,15.30
2019-05-02T18:43:02.147Z,14.35
2019-05-02T18:45:29.159Z,14.73
2019-05-02T18:48:02.347Z,15.43
2019-05-02T18:50:36.979Z,15.63
2019-05-02T18:53:06.450Z,16.17
2019-05-02T18:55:33.954Z,15.65
2019-05-02T18:58:05.140Z,14.45
2019-05-02T19:00:36.109Z,15.68
2019-05-02T19:02:59.728Z,15.88
2019-05-02T19:05:26.700Z,15.72
2019-05-02T19:07:56.317Z,15.78
2019-05-02T19:10:23.180Z,15.78
2019-05-02T19:12:50.269Z,16.60
2019-05-02T19:15:18.360Z,16.70
2019-05-02T19:17:45.258Z,15.85
2019-05-02T19:20:29.297Z,15.98
2019-05-02T19:22:57.023Z,16.52
2019-05-02T19:25:24.483Z,16.97
2019-05-02T19:27:52.135Z,17.95
2019-05-02T19:30:26.407Z,16.40
2019-05-02T19:35:19.272Z,16.85
2019-05-02T19:37:47.887Z,17.70
2019-05-02T19:40:26.896Z,17.15
2019-05-02T19:42:49.410Z,17.92
2019-05-02T19:45:16.982Z,16.77
2019-05-02T19:47:44.150Z,18.82
2019-05-02T19:50:36.710Z,18.00
2019-05-02T19:53:04.165Z,18.65
2019-05-02T19:55:29.772Z,18.50
2019-05-02T19:58:01.364Z,17.70
2019-05-02T20:00:27.091Z,18.57
2019-05-02T20:02:54.282Z,17.98
2019-05-02T20:05:25.434Z,19.27
2019-05-02T20:07:52.017Z,18.62
2019-05-02T20:10:19.398Z,18.52
2019-05-02T20:12:48.741Z,18.60
2019-05-02T20:15:25.407Z,19.42
2019-05-02T20:17:46.520Z,18.90
2019-05-02T20:20:42.292Z,19.75
2019-05-02T20:23:17.848Z,18.37
2019-05-02T20:25:39.173Z,19.85
2019-05-02T20:28:06.375Z,19.73
2019-05-02T20:30:33.522Z,21.00
2019-05-02T20:33:02.113Z,20.50
2019-05-02T20:35:29.341Z,19.73
2019-05-02T20:37:56.341Z,19.45
2019-05-02T20:40:28.160Z,21.50
2019-05-02T20:42:55.180Z,21.17
2019-05-02T20:45:22.764Z,20.75
2019-05-02T20:47:49.768Z,19.00
2019-05-02T20:50:17.068Z,20.10
2019-05-02T20:52:43.954Z,19.50
2019-05-02T20:55:12.262Z,20.55
2019-05-02T20:57:39.494Z,19.37
2019-05-02T21:00:23.391Z,20.50
2019-05-02T21:02:49.597Z,19.80
2019-05-02T21:05:21.879Z,19.50
2019-05-02T21:07:52.377Z,19.50
2019-05-02T21:10:21.836Z,20.92
2019-05-02T21:12:48.837Z,19.55
2019-05-02T21:15:18.211Z,19.90
2019-05-02T21:17:45.389Z,19.15
2019-05-02T21:20:12.585Z,18.77
2019-05-02T21:22:39.615Z,19.25
2019-05-02T21:25:07.021Z,19.32
2019-05-02T21:27:33.964Z,19.17
2019-05-02T21:30:01.065Z,20.10
2019-05-02T21:32:27.853Z,19.30
2019-05-02T21:34:54.810Z,19.32
2019-05-02T21:37:22.675Z,19.75
2019-05-02T21:39:49.697Z,21.07
2019-05-02T21:42:16.580Z,19.10
2019-05-02T21:44:43.936Z,20.92
2019-05-02T21:47:10.698Z,20.92
2019-05-02T21:49:43.094Z,21.90
2019-05-02T21:52:22.711Z,21.43
2019-05-02T21:54:52.256Z,21.48
2019-05-02T21:57:20.291Z,23.52
2019-05-02T21:59:47.300Z,23.38
2019-05-02T22:02:15.703Z,21.82
2019-05-02T22:04:42.922Z,24.00
2019-05-02T22:07:12.052Z,22.55
2019-05-02T22:09:38.558Z,24.10
2019-05-02T22:12:06.082Z,23.98
2019-05-02T22:14:33.092Z,23.22
2019-05-02T22:17:02.151Z,22.75
2019-05-02T22:19:29.002Z,21.68
2019-05-02T22:21:55.811Z,21.45
2019-05-02T22:24:22.731Z,21.20
2019-05-02T22:26:49.834Z,20.48
2019-05-02T22:29:16.682Z,17.92
2019-05-02T22:31:44.038Z,17.98
2019-05-02T22:34:12.819Z,18.07
2019-05-02T22:36:40.894Z,20.00
2019-05-02T22:39:22.728Z,18.57
2019-05-02T22:41:49.658Z,17.82
2019-05-02T22:44:16.478Z,19.48
2019-05-02T22:46:44.485Z,18.57
2019-05-02T22:49:14.650Z,19.52
2019-05-02T22:51:42.874Z,18.77
2019-05-02T22:54:23.294Z,18.35
2019-05-02T22:56:38.830Z,19.55
2019-05-02T22:59:06.001Z,18.42
2019-05-02T23:01:33.045Z,19.90
2019-05-02T23:04:01.857Z,20.72
2019-05-02T23:06:29.282Z,20.37
2019-05-02T23:08:56.171Z,20.82
2019-05-02T23:11:24.523Z,20.25
2019-05-02T23:13:51.796Z,19.92
2019-05-02T23:16:18.749Z,19.10
2019-05-02T23:18:45.551Z,20.60
2019-05-02T23:21:12.900Z,20.65
2019-05-02T23:23:41.719Z,20.05
2019-05-02T23:26:12.993Z,21.30
2019-05-02T23:28:42.365Z,20.90
2019-05-02T23:31:11.446Z,21.77
2019-05-02T23:33:56.868Z,21.48
2019-05-02T23:36:26.083Z,21.17
2019-05-02T23:38:52.970Z,20.97
2019-05-02T23:41:22.005Z,21.82
2019-05-02T23:43:49.007Z,20.35
2019-05-02T23:46:16.340Z,20.50
2019-05-02T23:48:43.512Z,21.85
2019-05-02T23:51:12.137Z,19.32
2019-05-02T23:53:39.294Z,19.77
2019-05-02T23:56:06.583Z,18.95
2019-05-02T23:58:33.344Z,19.92
